createdAt,value
2023-04-19T00:00:32.145Z,23.13
2023-04-19T00:03:01.031Z,23.00
2023-04-19T00:05:30.902Z,23.65
2023-04-19T00:07:59.076Z,21.67
2023-04-19T00:10:27.667Z,24.80
2023-04-19T00:12:55.960Z,22.40
2023-04-19T00:15:24.530Z,24.67
2023-04-19T00:17:52.833Z,24.00
2023-04-19T00:20:21.904Z,22.40
2023-04-19T00:22:51.468Z,21.73
2023-04-19T00:25:19.610Z,20.02
2023-04-19T00:27:48.237Z,20.40
2023-04-19T00:30:16.482Z,21.90
2023-04-19T00:32:44.808Z,20.42
2023-04-19T00:35:13.264Z,21.13
2023-04-19T00:37:41.774Z,18.30
2023-04-19T00:40:13.281Z,18.33
2023-04-19T00:42:41.355Z,19.98
2023-04-19T00:45:10.708Z,20.00
2023-04-19T00:47:39.050Z,19.52
2023-04-19T00:50:08.944Z,19.27
2023-04-19T00:52:37.545Z,21.95
2023-04-19T00:55:07.091Z,22.08
2023-04-19T00:57:38.561Z,17.90
2023-04-19T01:00:10.467Z,19.55
2023-04-19T01:02:39.031Z,20.98
2023-04-19T01:05:08.055Z,19.38
2023-04-19T01:07:36.235Z,18.70
2023-04-19T01:10:04.648Z,19.98
2023-04-19T01:12:32.945Z,18.23
2023-04-19T01:15:05.132Z,18.55
2023-04-19T01:17:34.109Z,18.50
2023-04-19T01:20:03.852Z,18.20
2023-04-19T01:22:34.068Z,17.23
2023-04-19T01:25:02.628Z,16.88
2023-04-19T01:27:30.755Z,16.23
2023-04-19T01:29:59.280Z,14.63
2023-04-19T01:32:28.248Z,17.85
2023-04-19T01:34:57.581Z,16.20
2023-04-19T01:37:26.293Z,15.85
2023-04-19T01:39:55.911Z,17.30
2023-04-19T01:42:23.931Z,15.90
2023-04-19T01:44:52.256Z,15.15
2023-04-19T01:47:21.177Z,16.67
2023-04-19T01:49:49.724Z,15.02
2023-04-19T01:52:18.894Z,15.25
2023-04-19T01:54:47.790Z,15.90
2023-04-19T01:57:19.102Z,16.88
2023-04-19T01:59:48.664Z,15.20
2023-04-19T02:02:17.413Z,14.70
2023-04-19T02:04:45.551Z,15.45
2023-04-19T02:07:13.939Z,18.00
2023-04-19T02:09:42.392Z,15.63
2023-04-19T02:12:11.165Z,15.77
2023-04-19T02:14:40.936Z,16.83
2023-04-19T02:17:10.350Z,15.88
2023-04-19T02:19:40.094Z,15.32
2023-04-19T02:22:08.218Z,14.88
2023-04-19T02:24:36.837Z,16.83
2023-04-19T02:27:05.076Z,19.80
2023-04-19T02:29:34.581Z,16.38
2023-04-19T02:32:06.188Z,16.20
2023-04-19T02:34:34.390Z,15.13
2023-04-19T02:37:03.716Z,17.75
2023-04-19T02:39:32.476Z,14.52
2023-04-19T02:42:01.487Z,16.67
2023-04-19T02:44:30.001Z,17.23
2023-04-19T02:46:58.781Z,15.85
2023-04-19T02:49:28.415Z,16.08
2023-04-19T02:51:56.778Z,18.17
2023-04-19T02:54:25.070Z,19.60
2023-04-19T02:56:53.953Z,19.05
2023-04-19T02:59:22.085Z,16.38
2023-04-19T03:01:50.885Z,16.42
2023-04-19T03:04:19.805Z,17.85
2023-04-19T03:06:49.495Z,15.98
2023-04-19T03:09:18.257Z,17.77
2023-04-19T03:11:46.391Z,16.83
2023-04-19T03:14:15.037Z,16.88
2023-04-19T03:16:43.562Z,15.60
2023-04-19T03:19:11.785Z,15.90
2023-04-19T03:21:49.496Z,17.60
2023-04-19T03:24:19.674Z,16.38
2023-04-19T03:26:52.265Z,17.80
2023-04-19T03:29:25.453Z,16.65
2023-04-19T03:32:06.204Z,18.83
2023-04-19T03:34:34.354Z,20.77
2023-04-19T03:37:04.221Z,20.55
2023-04-19T03:39:34.533Z,21.83
2023-04-19T03:42:06.380Z,16.63
2023-04-19T03:44:53.134Z,19.20
2023-04-19T03:47:21.490Z,23.20
2023-04-19T03:49:51.642Z,19.98
2023-04-19T03:52:21.835Z,18.80
2023-04-19T03:54:50.173Z,17.88
2023-04-19T03:57:31.469Z,16.25
2023-04-19T04:00:01.658Z,18.20
2023-04-19T04:02:32.691Z,17.80
2023-04-19T04:05:01.902Z,17.60
2023-04-19T04:07:31.886Z,17.48
2023-04-19T04:10:00.147Z,18.00
2023-04-19T04:12:28.604Z,17.65
2023-04-19T04:14:57.794Z,17.77
2023-04-19T04:17:26.645Z,16.70
2023-04-19T04:19:55.346Z,17.52
2023-04-19T04:22:25.984Z,16.15
2023-04-19T04:24:58.265Z,17.95
2023-04-19T04:27:36.061Z,16.33
2023-04-19T04:30:06.942Z,16.70
2023-04-19T04:32:36.087Z,16.38
2023-04-19T04:35:06.911Z,15.27
2023-04-19T04:37:43.164Z,14.43
2023-04-19T04:40:13.553Z,16.33
2023-04-19T04:42:42.917Z,16.33
2023-04-19T04:45:12.022Z,15.23
2023-04-19T04:47:43.197Z,14.90
2023-04-19T04:50:12.955Z,14.60
2023-04-19T04:52:41.133Z,12.35
2023-04-19T04:55:15.084Z,13.52
2023-04-19T04:57:45.434Z,11.50
2023-04-19T05:00:23.678Z,11.73
2023-04-19T05:03:29.856Z,15.18
2023-04-19T05:06:04.134Z,13.18
2023-04-19T05:08:33.174Z,13.55
2023-04-19T05:11:16.457Z,12.65
2023-04-19T05:13:45.573Z,12.45
2023-04-19T05:16:13.891Z,12.93
2023-04-19T05:18:45.925Z,17.08
2023-04-19T05:21:14.428Z,12.18
2023-04-19T05:23:43.088Z,10.45
2023-04-19T05:26:15.502Z,8.43
2023-04-19T05:28:46.773Z,9.35
2023-04-19T05:31:23.319Z,8.57
2023-04-19T05:34:06.381Z,9.50
2023-04-19T05:36:34.833Z,8.25
2023-04-19T05:39:03.525Z,8.68
2023-04-19T05:41:32.449Z,8.63
2023-04-19T05:44:02.650Z,7.38
2023-04-19T05:46:31.481Z,7.07
2023-04-19T05:49:00.212Z,6.60
2023-04-19T05:51:28.585Z,7.93
2023-04-19T05:54:12.775Z,8.07
2023-04-19T05:56:43.719Z,7.53
2023-04-19T05:59:14.846Z,7.32
2023-04-19T06:01:43.404Z,7.80
2023-04-19T06:04:12.025Z,6.53
2023-04-19T06:06:40.541Z,6.20
2023-04-19T06:09:09.035Z,7.65
2023-04-19T06:11:46.815Z,8.80
2023-04-19T06:14:20.355Z,6.20
2023-04-19T06:16:48.653Z,7.65
2023-04-19T06:19:17.457Z,6.28
2023-04-19T06:21:46.055Z,6.40
2023-04-19T06:24:14.505Z,6.40
2023-04-19T06:26:43.344Z,4.85
2023-04-19T06:29:11.540Z,4.80
2023-04-19T06:31:41.427Z,5.00
2023-04-19T06:34:11.202Z,4.72
2023-04-19T06:36:39.409Z,4.05
2023-04-19T06:39:08.360Z,4.00
2023-04-19T06:41:36.501Z,4.25
2023-04-19T06:44:04.644Z,4.20
2023-04-19T06:46:32.968Z,3.15
2023-04-19T06:49:02.850Z,4.93
2023-04-19T06:51:31.145Z,3.70
2023-04-19T06:53:59.286Z,3.58
2023-04-19T06:56:45.837Z,3.30
2023-04-19T06:59:14.675Z,3.15
2023-04-19T07:01:43.357Z,4.65
2023-04-19T07:04:14.110Z,3.75
2023-04-19T07:06:42.506Z,3.22
2023-04-19T07:09:10.649Z,3.78
2023-04-19T07:11:38.747Z,2.95
2023-04-19T07:14:07.053Z,3.00
2023-04-19T07:16:35.848Z,3.80
2023-04-19T07:19:04.428Z,3.50
2023-04-19T07:21:35.274Z,3.25
2023-04-19T07:24:03.452Z,3.42
2023-04-19T07:26:33.391Z,3.22
2023-04-19T07:29:02.185Z,2.65
2023-04-19T07:31:30.780Z,3.28
2023-04-19T07:33:59.069Z,3.10
2023-04-19T07:36:28.009Z,2.78
2023-04-19T07:38:58.114Z,2.83
2023-04-19T07:41:26.180Z,2.90
2023-04-19T07:43:54.469Z,2.35
2023-04-19T07:46:22.568Z,2.83
2023-04-19T07:48:50.955Z,3.33
2023-04-19T07:51:19.800Z,2.58
2023-04-19T07:53:49.321Z,2.97
2023-04-19T07:56:20.149Z,2.70
2023-04-19T07:58:56.440Z,3.30
2023-04-19T08:01:33.385Z,3.78
2023-04-19T08:04:02.453Z,3.38
2023-04-19T08:06:32.119Z,4.55
2023-04-19T08:09:00.239Z,3.00
2023-04-19T08:11:30.816Z,3.00
2023-04-19T08:14:09.290Z,2.95
2023-04-19T08:17:21.280Z,4.00
2023-04-19T08:19:31.601Z,3.35
2023-04-19T08:22:00.169Z,3.10
2023-04-19T08:24:28.734Z,3.75
2023-04-19T08:27:00.140Z,3.05
2023-04-19T08:29:28.582Z,3.95
2023-04-19T08:31:56.830Z,4.03
2023-04-19T08:34:25.038Z,3.97
2023-04-19T08:37:03.262Z,3.83
2023-04-19T08:39:34.170Z,3.83
2023-04-19T08:42:13.503Z,3.83
2023-04-19T08:45:23.155Z,3.88
2023-04-19T08:47:59.889Z,4.20
2023-04-19T08:55:34.844Z,3.70
2023-04-19T08:58:09.666Z,4.20
2023-04-19T09:00:41.692Z,4.95
2023-04-19T09:03:10.126Z,4.65
2023-04-19T09:05:38.624Z,5.47
2023-04-19T09:08:24.854Z,4.07
2023-04-19T09:10:55.013Z,3.55
2023-04-19T09:13:25.299Z,4.45
2023-04-19T09:15:54.340Z,3.55
2023-04-19T09:18:22.737Z,3.45
2023-04-19T09:20:51.204Z,3.70
2023-04-19T09:23:20.132Z,3.60
2023-04-19T09:26:19.309Z,3.22
2023-04-19T09:28:57.126Z,3.78
2023-04-19T09:31:47.228Z,4.20
2023-04-19T09:34:16.093Z,3.72
2023-04-19T09:36:44.796Z,4.07
2023-04-19T09:39:15.188Z,5.03
2023-04-19T09:41:52.737Z,4.25
2023-04-19T09:46:54.154Z,2.95
2023-04-19T09:49:33.747Z,4.15
2023-04-19T09:52:15.060Z,3.70
2023-04-19T09:54:44.192Z,3.90
2023-04-19T09:57:12.736Z,3.53
2023-04-19T09:59:42.842Z,3.33
2023-04-19T10:02:13.315Z,5.18
2023-04-19T10:04:59.721Z,3.90
2023-04-19T10:07:33.062Z,4.13
2023-04-19T10:10:16.100Z,3.67
2023-04-19T10:15:24.699Z,3.47
2023-04-19T10:17:53.494Z,3.80
2023-04-19T10:20:26.394Z,3.15
2023-04-19T10:22:55.031Z,3.28
2023-04-19T10:25:30.113Z,3.80
2023-04-19T10:28:03.274Z,3.75
2023-04-19T10:30:33.090Z,4.28
2023-04-19T10:33:04.016Z,3.97
2023-04-19T10:35:37.882Z,3.20
2023-04-19T10:38:08.873Z,3.60
2023-04-19T10:41:00.933Z,3.97
2023-04-19T10:43:30.951Z,4.05
2023-04-19T10:46:08.570Z,3.22
2023-04-19T10:48:44.237Z,2.95
2023-04-19T10:51:15.728Z,3.47
2023-04-19T10:53:49.179Z,3.15
2023-04-19T10:56:19.229Z,3.33
2023-04-19T10:59:21.684Z,3.65
2023-04-19T11:01:57.389Z,3.35
2023-04-19T11:05:04.326Z,3.88
2023-04-19T11:07:41.557Z,3.63
2023-04-19T11:10:11.767Z,5.93
2023-04-19T11:12:44.322Z,3.97
2023-04-19T11:15:12.745Z,2.90
2023-04-19T11:17:42.818Z,2.85
2023-04-19T11:20:14.760Z,3.65
2023-04-19T11:22:44.332Z,3.20
2023-04-19T11:25:14.192Z,3.53
2023-04-19T11:27:44.599Z,3.60
2023-04-19T11:30:15.196Z,3.53
2023-04-19T11:32:48.488Z,3.42
2023-04-19T11:35:20.885Z,3.83
2023-04-19T11:37:49.682Z,3.08
2023-04-19T11:40:19.162Z,3.22
2023-04-19T11:42:48.322Z,4.10
2023-04-19T11:45:30.320Z,4.57
2023-04-19T11:48:00.110Z,4.32
2023-04-19T11:50:38.451Z,4.00
2023-04-19T11:53:17.688Z,4.30
2023-04-19T11:55:47.967Z,3.97
2023-04-19T11:58:32.442Z,4.10
2023-04-19T12:01:06.865Z,3.80
2023-04-19T12:03:36.169Z,4.20
2023-04-19T12:06:09.325Z,4.13
2023-04-19T12:08:39.097Z,4.38
2023-04-19T12:11:07.997Z,3.50
2023-04-19T12:13:37.926Z,5.35
2023-04-19T12:16:06.504Z,4.40
2023-04-19T12:18:46.125Z,4.45
2023-04-19T12:21:27.652Z,4.95
2023-04-19T12:23:59.504Z,4.82
2023-04-19T12:26:28.554Z,5.18
2023-04-19T12:28:56.887Z,4.78
2023-04-19T12:31:26.280Z,4.35
2023-04-19T12:33:54.923Z,5.38
2023-04-19T12:36:23.793Z,4.45
2023-04-19T12:38:53.416Z,3.85
2023-04-19T12:41:21.693Z,4.25
2023-04-19T12:43:50.534Z,4.38
2023-04-19T12:46:19.131Z,4.22
2023-04-19T12:48:47.568Z,4.13
2023-04-19T12:51:15.882Z,5.90
2023-04-19T12:53:49.380Z,5.07
2023-04-19T12:56:19.756Z,5.45
2023-04-19T12:58:48.283Z,5.60
2023-04-19T13:01:17.282Z,4.25
2023-04-19T13:03:45.859Z,5.30
2023-04-19T13:06:22.395Z,5.20
2023-04-19T13:08:51.372Z,5.43
2023-04-19T13:11:25.097Z,5.78
2023-04-19T13:13:56.788Z,5.57
2023-04-19T13:16:25.585Z,6.35
2023-04-19T13:18:55.301Z,6.80
2023-04-19T13:21:24.562Z,4.88
2023-04-19T13:23:55.132Z,5.30
2023-04-19T13:26:29.084Z,5.68
2023-04-19T13:28:58.642Z,5.40
2023-04-19T13:31:27.206Z,5.60
2023-04-19T13:33:56.306Z,6.82
2023-04-19T13:36:24.984Z,9.52
2023-04-19T13:38:53.455Z,9.68
2023-04-19T13:41:22.807Z,8.98
2023-04-19T13:43:52.815Z,5.80
2023-04-19T13:46:21.477Z,6.82
2023-04-19T13:48:49.842Z,7.75
2023-04-19T13:51:18.481Z,12.07
2023-04-19T13:53:47.068Z,8.13
2023-04-19T13:56:15.870Z,4.25
2023-04-19T13:58:44.140Z,7.35
2023-04-19T14:01:13.949Z,4.63
2023-04-19T14:03:42.689Z,3.92
2023-04-19T14:06:12.114Z,4.60
2023-04-19T14:08:40.345Z,4.70
2023-04-19T14:11:08.535Z,5.38
2023-04-19T14:13:37.244Z,4.50
2023-04-19T14:16:05.866Z,4.97
2023-04-19T14:18:35.811Z,3.70
2023-04-19T14:21:04.201Z,4.03
2023-04-19T14:23:32.528Z,3.88
2023-04-19T14:26:01.094Z,4.35
2023-04-19T14:28:29.506Z,4.88
2023-04-19T14:30:58.589Z,5.25
2023-04-19T14:33:27.513Z,5.90
2023-04-19T14:35:57.752Z,2.88
2023-04-19T14:38:26.245Z,2.30
2023-04-19T14:40:54.623Z,3.65
2023-04-19T14:43:23.069Z,2.42
2023-04-19T14:45:51.265Z,2.15
2023-04-19T14:48:22.121Z,2.80
2023-04-19T14:50:51.436Z,3.10
2023-04-19T14:53:21.343Z,3.33
2023-04-19T14:55:50.033Z,3.17
2023-04-19T14:58:18.309Z,4.90
2023-04-19T15:00:46.688Z,3.83
2023-04-19T15:03:15.022Z,4.10
2023-04-19T15:05:44.202Z,3.55
2023-04-19T15:08:26.874Z,4.75
2023-04-19T15:10:59.943Z,4.00
2023-04-19T15:13:29.844Z,4.30
2023-04-19T15:15:59.509Z,3.75
2023-04-19T15:18:29.330Z,4.80
2023-04-19T15:20:57.936Z,4.85
2023-04-19T15:23:26.564Z,12.65
2023-04-19T15:25:54.871Z,9.20
2023-04-19T15:28:25.380Z,9.20
2023-04-19T15:31:00.233Z,11.00
2023-04-19T15:33:28.979Z,24.38
2023-04-19T15:35:58.528Z,4.30
2023-04-19T15:38:28.361Z,3.28
2023-04-19T15:40:57.408Z,3.00
2023-04-19T15:43:27.093Z,4.70
2023-04-19T15:45:55.696Z,8.00
2023-04-19T15:48:23.901Z,59.28
2023-04-19T15:50:52.268Z,11.05
2023-04-19T15:53:20.859Z,6.78
2023-04-19T15:55:49.504Z,5.15
2023-04-19T15:58:17.801Z,5.55
2023-04-19T16:00:47.308Z,3.90
2023-04-19T16:03:16.634Z,3.53
2023-04-19T16:05:45.707Z,3.85
2023-04-19T16:08:17.732Z,3.20
2023-04-19T16:10:46.251Z,3.00
2023-04-19T16:13:15.666Z,2.45
2023-04-19T16:15:45.462Z,2.58
2023-04-19T16:18:15.193Z,2.60
2023-04-19T16:20:43.644Z,3.20
2023-04-19T16:23:14.648Z,2.83
2023-04-19T16:25:42.929Z,3.28
2023-04-19T16:28:11.417Z,3.20
2023-04-19T16:30:40.065Z,3.33
2023-04-19T16:33:08.356Z,3.60
2023-04-19T16:35:37.956Z,3.55
2023-04-19T16:38:07.107Z,3.90
2023-04-19T16:40:35.398Z,3.80
2023-04-19T16:43:04.821Z,4.10
2023-04-19T16:45:33.452Z,4.07
2023-04-19T16:48:02.242Z,4.03
2023-04-19T16:50:31.118Z,5.93
2023-04-19T16:53:01.038Z,5.40
2023-04-19T16:55:29.734Z,5.03
2023-04-19T16:57:58.109Z,6.05
2023-04-19T17:00:27.129Z,5.35
2023-04-19T17:03:20.453Z,5.45
2023-04-19T17:05:49.361Z,5.43
2023-04-19T17:08:19.153Z,5.18
2023-04-19T17:10:47.499Z,5.03
2023-04-19T17:13:15.830Z,5.65
2023-04-19T17:15:44.306Z,5.15
2023-04-19T17:18:17.101Z,5.30
2023-04-19T17:20:45.830Z,4.78
2023-04-19T17:23:14.828Z,4.88
2023-04-19T17:25:44.707Z,4.88
2023-04-19T17:28:13.244Z,5.13
2023-04-19T17:30:45.671Z,6.28
2023-04-19T17:33:13.829Z,5.30
2023-04-19T17:35:44.216Z,6.05
2023-04-19T17:38:12.699Z,7.60
2023-04-19T17:40:41.451Z,7.43
2023-04-19T17:43:11.665Z,4.65
2023-04-19T17:45:40.554Z,6.53
2023-04-19T17:48:09.061Z,3.70
2023-04-19T17:50:37.411Z,4.50
2023-04-19T17:53:05.694Z,5.30
2023-04-19T17:55:34.083Z,6.07
2023-04-19T17:58:03.104Z,4.22
2023-04-19T18:00:33.028Z,7.05
2023-04-19T18:03:01.459Z,4.70
2023-04-19T18:05:29.764Z,6.15
2023-04-19T18:07:57.983Z,4.63
2023-04-19T18:10:26.675Z,3.88
2023-04-19T18:12:56.035Z,3.15
2023-04-19T18:15:24.449Z,4.38
2023-04-19T18:17:54.619Z,6.85
2023-04-19T18:20:22.845Z,6.03
2023-04-19T18:22:52.022Z,5.45
2023-04-19T18:25:21.789Z,7.13
2023-04-19T18:27:50.711Z,8.82
2023-04-19T18:30:19.108Z,6.15
2023-04-19T18:32:47.818Z,10.10
2023-04-19T18:35:17.487Z,10.68
2023-04-19T18:37:45.658Z,8.30
2023-04-19T18:40:14.766Z,4.78
2023-04-19T18:42:42.856Z,7.93
2023-04-19T18:45:12.045Z,6.80
2023-04-19T18:47:40.408Z,6.22
2023-04-19T18:50:09.938Z,7.50
2023-04-19T18:52:39.867Z,11.73
2023-04-19T18:55:10.448Z,17.08
2023-04-19T18:57:39.054Z,10.70
2023-04-19T19:00:11.361Z,6.53
2023-04-19T19:02:41.277Z,6.32
2023-04-19T19:05:13.908Z,6.35
2023-04-19T19:07:45.294Z,5.50
2023-04-19T19:10:19.186Z,4.85
2023-04-19T19:12:50.879Z,6.43
2023-04-19T19:15:19.297Z,5.75
2023-04-19T19:17:49.811Z,7.07
2023-04-19T19:20:20.211Z,8.02
2023-04-19T19:22:51.328Z,8.30
2023-04-19T19:25:20.213Z,6.78
2023-04-19T19:30:21.803Z,6.45
2023-04-19T19:32:50.995Z,7.97
2023-04-19T19:35:19.886Z,8.00
2023-04-19T19:37:49.304Z,9.50
2023-04-19T19:40:22.403Z,8.27
2023-04-19T19:42:50.966Z,8.45
2023-04-19T19:45:19.660Z,7.97
2023-04-19T19:47:49.935Z,8.43
2023-04-19T19:52:53.171Z,7.75
2023-04-19T19:55:21.446Z,8.13
2023-04-19T19:58:21.063Z,7.75
2023-04-19T20:00:47.370Z,7.40
2023-04-19T20:03:32.860Z,7.65
2023-04-19T20:08:44.462Z,7.88
2023-04-19T20:11:13.529Z,8.73
2023-04-19T20:13:41.673Z,7.75
2023-04-19T20:16:10.150Z,9.48
2023-04-19T20:18:39.323Z,9.70
2023-04-19T20:21:07.843Z,11.90
2023-04-19T20:23:40.816Z,9.95
2023-04-19T20:26:09.240Z,10.82
2023-04-19T20:28:38.406Z,12.95
2023-04-19T20:31:07.398Z,11.40
2023-04-19T20:33:35.585Z,12.13
2023-04-19T20:36:04.372Z,12.55
2023-04-19T20:38:34.647Z,11.95
2023-04-19T20:41:04.424Z,11.57
2023-04-19T20:43:33.071Z,10.95
2023-04-19T20:46:01.558Z,10.52
2023-04-19T20:48:29.834Z,9.90
2023-04-19T20:50:57.923Z,9.20
2023-04-19T20:53:26.424Z,10.60
2023-04-19T20:55:55.104Z,9.88
2023-04-19T20:58:24.548Z,9.80
2023-04-19T21:00:53.198Z,8.90
2023-04-19T21:03:21.438Z,9.30
2023-04-19T21:05:49.676Z,13.05
2023-04-19T21:08:19.104Z,12.43
2023-04-19T21:10:47.264Z,12.80
2023-04-19T21:13:15.534Z,10.68
2023-04-19T21:15:46.589Z,11.50
2023-04-19T21:18:15.232Z,10.80
2023-04-19T21:20:46.233Z,8.23
2023-04-19T21:23:16.652Z,7.43
2023-04-19T21:25:45.321Z,8.20
2023-04-19T21:28:13.477Z,9.52
2023-04-19T21:30:43.483Z,7.35
2023-04-19T21:33:13.230Z,7.45
2023-04-19T21:35:41.537Z,7.85
2023-04-19T21:38:09.852Z,6.30
2023-04-19T21:40:37.802Z,7.00
2023-04-19T21:43:06.016Z,8.98
2023-04-19T21:45:34.566Z,7.88
2023-04-19T21:48:03.173Z,9.15
2023-04-19T21:50:33.190Z,7.40
2023-04-19T21:53:01.533Z,7.60
2023-04-19T21:55:29.735Z,8.60
2023-04-19T21:57:58.231Z,8.10
2023-04-19T22:00:26.788Z,8.48
2023-04-19T22:02:55.074Z,8.93
2023-04-19T22:05:23.325Z,7.18
2023-04-19T22:07:52.914Z,8.63
2023-04-19T22:10:22.686Z,8.50
2023-04-19T22:12:58.357Z,6.93
2023-04-19T22:15:28.090Z,8.88
2023-04-19T22:17:57.373Z,6.97
2023-04-19T22:20:27.258Z,7.32
2023-04-19T22:22:57.222Z,7.30
2023-04-19T22:25:25.316Z,7.07
2023-04-19T22:27:54.076Z,7.72
2023-04-19T22:30:22.457Z,7.55
2023-04-19T22:32:51.077Z,7.00
2023-04-19T22:35:22.054Z,8.50
2023-04-19T22:37:51.302Z,8.40
2023-04-19T22:40:20.920Z,8.27
2023-04-19T22:42:49.079Z,8.95
2023-04-19T22:45:17.594Z,8.95
2023-04-19T22:47:46.150Z,9.35
2023-04-19T22:50:14.632Z,7.60
2023-04-19T22:52:42.853Z,8.63
2023-04-19T22:55:11.670Z,6.95
2023-04-19T22:57:41.531Z,8.05
2023-04-19T23:00:11.631Z,8.38
2023-04-19T23:02:40.401Z,7.60
2023-04-19T23:05:09.455Z,6.93
2023-04-19T23:07:39.410Z,8.32
2023-04-19T23:10:10.358Z,8.10
2023-04-19T23:12:38.996Z,9.25
2023-04-19T23:15:11.151Z,7.85
2023-04-19T23:17:40.692Z,9.18
2023-04-19T23:20:11.740Z,8.50
2023-04-19T23:22:40.708Z,10.07
2023-04-19T23:25:09.964Z,9.40
2023-04-19T23:27:38.464Z,9.73
2023-04-19T23:30:10.718Z,8.90
2023-04-19T23:32:38.927Z,8.13
2023-04-19T23:35:07.569Z,8.10
2023-04-19T23:37:36.725Z,9.10
2023-04-19T23:40:06.316Z,9.45
2023-04-19T23:42:34.645Z,8.85
2023-04-19T23:45:10.686Z,10.63
2023-04-19T23:47:40.640Z,11.27
2023-04-19T23:50:09.796Z,9.80
2023-04-19T23:52:38.235Z,9.55
2023-04-19T23:55:07.116Z,10.48
2023-04-19T23:57:35.633Z,12.00
